Terminal Aerodrome Forecast
Issued by NWS Atlanta, GA

Home | Current Version | Previous Version | Text Only | Print | Product List | Glossary On
Versions: 1 2 3 4 5 6 7 8 9 10 11 12 13 14 15 16 17 18 19 20 21 22 23 24 25 26 27 28 29 30
622
FTUS42 KFFC 271739
TAFMCN
TAF
KMCN 271739Z 2718/2818 35003KT P6SM SCT026
      TEMPO 2719/2723 4SM -TSRA BKN050CB
     FM272300 00000KT P6SM SCT050
     FM281300 24004KT P6SM SCT070
     FM281600 27008KT P6SM SCT050=

USA.gov is the U.S. government's official web portal to all federal, state and local government web resources and services.